Duluth International Airport Duluth US
ICAO: KDLH
IATA: DLH
Category: Large
Scheduled Services: Yes

Elevation: 1428 ft
TransAlt. 18000 ft.

Airport Communications:
APP/DEP:125.45
ATIS:124.1
GND:121.9
ANG COMD POST:28.89
PTD:28.89
PRINCETON RDO:122.35
TWR:118.3
UNICOM:122.95

KDLH Zoom In..

Runways:

(A) RW 03 length 5719 ft width 150 ft
---- / hdg 30

(B) RW 09 length 10162 ft width 150 ft
ILS 110.30 / hdg 90

(C) RW 21 length 5719 ft width 150 ft
---- / hdg 210

(D) RW 27 length 10162 ft width 150 ft
ILS 108.70 / hdg 270

Location; KDLH
Day. 21 / Time. 23.55 Zulu
* Altimeter: 30.01
* Temperature: -01° c. -30.2°f.
* Wind from: 090° Speed 10 kn.
Dewpoint: -02° c.
Visibility: 1/4 Statute Miles.
Conditions: Freezing fog.

KDLH 212355Z 09010KT 1/4SM R09/1400V1600FT FZFG VV002 M01/M02 A3001 RMK AO2 SLP184 I1001 I6001 T10111017 10022 21017 53011


Wind From 090°
Speed 10 kn.

jpsM music video
CHECK IT OUT

jpsM - It Moves..

 
jpsmedia.com for Web Design  worldairports.se 2018   terms of use